Time;durP1;ratioP1;P1;durP2;ratioP2;P2;SDS_P1;SDS_P2;PMS_P1;PMS_P2;Temp;Humidity;BMP_temperature;BMP_pressure;BME280_temperature;BME280_humidity;BME280_pressure;Samples;Min_cycle;Max_cycle;Signal;HPM_P1;HPM_P2
2021/05/15 00:00:34;;;;;;;2.20;2.00;;;9.30;99.90;;;;;;5052099;28;20033;-74
2021/05/15 00:03:00;;;;;;;3.05;1.85;;;9.00;99.90;;;;;;5052336;28;20029;-72
2021/05/15 00:05:26;;;;;;;3.65;2.03;;;8.70;99.90;;;;;;5033981;28;20032;-74
2021/05/15 00:07:52;;;;;;;2.08;1.80;;;8.80;99.90;;;;;;5051834;28;20091;-72
2021/05/15 00:10:19;;;;;;;3.35;2.28;;;8.70;99.90;;;;;;5051948;28;20036;-72
2021/05/15 00:12:45;;;;;;;4.43;2.00;;;9.00;99.90;;;;;;5034293;28;20116;-72
2021/05/15 00:15:11;;;;;;;3.47;1.90;;;9.20;99.90;;;;;;5034268;28;20163;-74
2021/05/15 00:17:38;;;;;;;3.47;2.30;;;9.30;99.90;;;;;;5051994;28;20033;-73
2021/05/15 00:20:09;;;;;;;2.22;1.92;;;8.70;99.90;;;;;;5051846;28;20032;-74
2021/05/15 00:22:35;;;;;;;2.35;2.15;;;8.60;99.90;;;;;;5052409;28;20032;-73
2021/05/15 00:25:01;;;;;;;3.95;2.10;;;8.60;99.90;;;;;;5051908;28;20419;-72
2021/05/15 00:27:26;;;;;;;2.70;2.08;;;8.70;99.90;;;;;;5051897;28;20067;-72
2021/05/15 00:29:52;;;;;;;3.42;2.20;;;8.60;99.90;;;;;;5051666;28;20025;-74
2021/05/15 00:32:17;;;;;;;2.20;2.10;;;8.10;99.90;;;;;;5051912;28;20061;-74
2021/05/15 00:34:43;;;;;;;2.80;2.28;;;7.90;99.90;;;;;;5051877;28;20075;-73
2021/05/15 00:37:08;;;;;;;2.67;2.40;;;8.00;99.90;;;;;;5051734;28;20025;-74
2021/05/15 00:39:34;;;;;;;4.30;1.95;;;7.90;99.90;;;;;;5051454;28;20025;-72
2021/05/15 00:41:59;;;;;;;2.03;1.85;;;7.90;99.90;;;;;;5051723;28;20103;-73
2021/05/15 00:46:50;;;;;;;2.50;2.20;;;8.40;99.90;;;;;;5052026;28;20053;-73
2021/05/15 00:49:16;;;;;;;3.33;2.10;;;8.30;99.90;;;;;;5051537;28;20056;-73
2021/05/15 00:51:42;;;;;;;2.55;2.10;;;8.00;99.90;;;;;;5051738;28;20040;-73
2021/05/15 00:54:12;;;;;;;2.40;2.15;;;7.60;99.90;;;;;;5051559;28;20032;-73
2021/05/15 00:56:38;;;;;;;3.60;2.00;;;7.60;99.90;;;;;;5051588;28;20480;-73
2021/05/15 00:59:04;;;;;;;2.45;2.25;;;7.80;99.90;;;;;;5051133;28;20495;-73
2021/05/15 01:01:31;;;;;;;4.75;2.17;;;7.90;99.90;;;;;;5067024;28;20025;-72
2021/05/15 01:03:57;;;;;;;4.82;2.35;;;7.90;99.90;;;;;;5051333;28;20021;-72
2021/05/15 01:06:22;;;;;;;3.33;2.00;;;8.20;99.90;;;;;;5033605;28;20067;-72
2021/05/15 01:08:48;;;;;;;4.57;2.10;;;8.00;99.90;;;;;;5051318;28;20033;-72
2021/05/15 01:11:18;;;;;;;2.22;1.92;;;7.70;99.90;;;;;;5051182;28;20507;-73
2021/05/15 01:13:59;;;;;;;3.33;2.10;;;7.50;99.90;;;;;;5033515;28;20112;-74
2021/05/15 01:16:25;;;;;;;2.80;2.47;;;7.60;99.90;;;;;;5051557;28;20024;-76
2021/05/15 01:18:51;;;;;;;3.88;2.30;;;7.60;99.90;;;;;;5054870;28;20025;-76
2021/05/15 01:21:17;;;;;;;2.65;1.88;;;7.50;99.90;;;;;;5037394;28;20021;-76
2021/05/15 01:23:42;;;;;;;2.13;2.00;;;7.60;99.90;;;;;;5055375;28;20100;-75
2021/05/15 01:26:16;;;;;;;2.10;1.90;;;7.90;99.90;;;;;;5055291;28;20541;-76
2021/05/15 01:28:43;;;;;;;3.42;1.75;;;7.90;99.90;;;;;;5055138;28;20025;-76
2021/05/15 01:31:09;;;;;;;2.17;1.83;;;8.00;99.90;;;;;;5037200;28;20029;-76
2021/05/15 01:33:35;;;;;;;2.13;1.92;;;7.60;99.90;;;;;;5055210;28;20105;-75
2021/05/15 01:36:00;;;;;;;5.75;2.00;;;7.50;99.90;;;;;;5055140;28;20119;-74
2021/05/15 01:38:27;;;;;;;2.40;1.80;;;7.50;99.90;;;;;;5054937;28;20078;-73
2021/05/15 01:40:52;;;;;;;2.15;1.88;;;7.80;99.90;;;;;;5054785;28;20032;-74
2021/05/15 01:43:19;;;;;;;2.67;2.00;;;7.80;99.90;;;;;;5054969;28;20025;-74
2021/05/15 01:45:45;;;;;;;2.55;1.77;;;7.80;99.90;;;;;;5054827;28;20036;-73
2021/05/15 01:48:17;;;;;;;3.17;1.90;;;8.10;99.90;;;;;;5036768;28;20025;-73
2021/05/15 01:50:56;;;;;;;3.78;2.03;;;8.30;99.90;;;;;;5054472;28;20093;-72
2021/05/15 01:53:22;;;;;;;3.03;1.88;;;8.20;99.90;;;;;;5054820;28;20025;-72
2021/05/15 01:55:48;;;;;;;2.10;1.65;;;8.20;99.90;;;;;;5036848;28;20488;-72
2021/05/15 01:58:13;;;;;;;2.55;1.80;;;8.30;99.90;;;;;;5054638;28;20060;-72
2021/05/15 02:00:39;;;;;;;1.83;1.73;;;8.40;99.90;;;;;;5036311;28;20496;-72
2021/05/15 02:03:04;;;;;;;2.35;2.05;;;8.30;99.90;;;;;;5054530;28;20040;-72
2021/05/15 02:05:30;;;;;;;2.08;1.70;;;8.50;99.90;;;;;;5054366;28;20120;-71
2021/05/15 02:07:55;;;;;;;2.08;1.65;;;8.70;99.90;;;;;;5054416;28;20029;-74
2021/05/15 02:10:21;;;;;;;2.10;1.90;;;8.80;99.90;;;;;;5054281;28;20025;-73
2021/05/15 02:12:46;;;;;;;4.93;2.25;;;8.80;99.90;;;;;;5054472;28;20392;-73
2021/05/15 02:15:12;;;;;;;6.60;2.13;;;8.90;99.90;;;;;;5054378;28;20033;-73
2021/05/15 02:17:38;;;;;;;3.35;1.60;;;8.70;99.90;;;;;;5054274;28;20075;-73
2021/05/15 02:20:04;;;;;;;3.47;1.73;;;9.00;99.90;;;;;;5036190;28;20079;-73
2021/05/15 02:22:29;;;;;;;4.70;1.98;;;9.20;99.90;;;;;;5054209;28;20029;-73
2021/05/15 02:24:54;;;;;;;2.47;2.10;;;8.90;99.90;;;;;;5036158;28;20127;-72
2021/05/15 02:27:20;;;;;;;2.10;1.90;;;8.80;99.90;;;;;;5054092;28;20021;-73
2021/05/15 02:29:45;;;;;;;1.65;1.55;;;9.00;99.90;;;;;;5053035;28;20531;-73
2021/05/15 02:32:11;;;;;;;2.67;2.28;;;9.10;99.90;;;;;;5054187;28;20061;-73
2021/05/15 02:34:37;;;;;;;2.20;1.77;;;9.30;99.90;;;;;;5054047;28;20032;-74
2021/05/15 02:37:02;;;;;;;3.05;1.92;;;9.30;99.90;;;;;;5053995;28;20358;-74
2021/05/15 02:39:28;;;;;;;4.07;2.10;;;9.10;99.90;;;;;;5053707;28;20029;-74
2021/05/15 02:41:54;;;;;;;2.85;1.80;;;9.20;99.90;;;;;;5053951;28;20154;-72
2021/05/15 02:44:19;;;;;;;3.40;2.30;;;9.30;99.90;;;;;;5035715;28;20078;-72
2021/05/15 02:46:44;;;;;;;2.60;1.77;;;9.20;99.90;;;;;;5053748;28;20108;-73
2021/05/15 02:49:10;;;;;;;1.90;1.70;;;9.40;99.90;;;;;;5035495;28;20028;-73
2021/05/15 02:51:35;;;;;;;3.55;1.73;;;9.40;99.90;;;;;;5053647;28;20040;-73
2021/05/15 02:54:01;;;;;;;4.38;1.80;;;9.40;99.90;;;;;;5053705;28;20071;-73
2021/05/15 02:56:27;;;;;;;1.75;1.60;;;9.40;99.90;;;;;;5053602;28;20021;-73
2021/05/15 02:58:52;;;;;;;3.88;1.98;;;9.50;99.90;;;;;;5035547;28;20017;-73
2021/05/15 03:01:19;;;;;;;2.35;1.90;;;9.50;99.90;;;;;;5053335;28;20055;-73
2021/05/15 03:03:45;;;;;;;2.35;1.92;;;9.50;99.90;;;;;;5053390;28;20728;-73
2021/05/15 03:06:11;;;;;;;2.70;1.95;;;9.60;99.90;;;;;;5053454;28;20021;-72
2021/05/15 03:08:36;;;;;;;2.22;1.80;;;9.50;99.90;;;;;;5053407;28;20365;-73
2021/05/15 03:11:01;;;;;;;3.17;2.13;;;9.60;99.90;;;;;;5035202;28;20032;-72
2021/05/15 03:13:28;;;;;;;3.08;2.00;;;9.50;99.90;;;;;;5053248;28;20032;-73
2021/05/15 03:15:53;;;;;;;2.05;1.80;;;9.40;99.90;;;;;;5053338;28;20021;-74
2021/05/15 03:18:19;;;;;;;2.42;2.00;;;9.40;99.90;;;;;;5053098;28;20365;-74
2021/05/15 03:20:45;;;;;;;2.00;1.70;;;9.40;99.90;;;;;;5052948;28;20028;-74
2021/05/15 03:23:11;;;;;;;5.03;1.80;;;9.60;99.90;;;;;;5053018;28;20111;-74
2021/05/15 03:25:37;;;;;;;4.20;2.10;;;9.70;99.90;;;;;;5052959;28;20028;-74
2021/05/15 03:28:03;;;;;;;1.88;1.67;;;9.70;99.90;;;;;;5052782;28;20025;-74
2021/05/15 03:30:28;;;;;;;1.88;1.67;;;9.80;99.90;;;;;;5052632;28;20082;-74
2021/05/15 03:32:54;;;;;;;1.80;1.70;;;9.80;99.90;;;;;;5052795;28;20101;-74
2021/05/15 03:35:20;;;;;;;2.38;2.05;;;9.80;99.90;;;;;;5052789;28;20144;-74
2021/05/15 03:37:46;;;;;;;3.45;1.95;;;9.70;99.90;;;;;;5052633;28;20025;-73
2021/05/15 03:40:12;;;;;;;2.25;1.90;;;9.60;99.90;;;;;;5052094;28;20506;-75
2021/05/15 03:42:38;;;;;;;2.15;1.85;;;9.60;99.90;;;;;;5051895;28;20021;-75
2021/05/15 03:45:05;;;;;;;2.50;1.95;;;9.60;99.90;;;;;;5052643;28;20071;-75
2021/05/15 03:47:31;;;;;;;2.20;1.80;;;9.60;99.90;;;;;;5052516;28;20032;-75
2021/05/15 03:49:56;;;;;;;3.13;2.00;;;9.60;99.90;;;;;;5052355;28;20025;-74
2021/05/15 03:52:22;;;;;;;2.30;1.60;;;9.60;99.90;;;;;;5052400;28;20124;-75
2021/05/15 03:54:47;;;;;;;1.90;1.60;;;9.60;99.90;;;;;;5052429;28;20036;-75
2021/05/15 03:57:13;;;;;;;2.03;1.73;;;9.60;99.90;;;;;;5052268;28;20104;-73
2021/05/15 03:59:38;;;;;;;1.77;1.52;;;9.60;99.90;;;;;;5034245;28;20108;-74
2021/05/15 04:02:04;;;;;;;2.70;1.77;;;9.70;99.90;;;;;;5052419;28;20484;-74
2021/05/15 04:04:29;;;;;;;2.28;1.70;;;9.70;99.90;;;;;;5052265;28;20525;-74
2021/05/15 04:06:55;;;;;;;2.90;1.70;;;9.60;99.90;;;;;;5052233;28;20025;-73
2021/05/15 04:09:20;;;;;;;2.72;1.83;;;9.60;99.90;;;;;;5052086;28;20106;-72
2021/05/15 04:11:46;;;;;;;2.97;1.90;;;9.60;99.90;;;;;;5052052;28;20056;-73
2021/05/15 04:16:49;;;;;;;2.95;1.73;;;9.60;99.90;;;;;;5052450;28;20021;-72
2021/05/15 04:19:14;;;;;;;2.15;1.83;;;9.60;99.90;;;;;;5051851;28;20180;-74
2021/05/15 04:21:40;;;;;;;4.00;1.77;;;9.70;99.90;;;;;;5052021;28;20021;-74
2021/05/15 04:24:06;;;;;;;2.58;1.90;;;9.60;99.90;;;;;;5034005;28;20021;-72
2021/05/15 04:26:32;;;;;;;2.88;1.60;;;9.60;99.90;;;;;;5051745;28;20021;-73
2021/05/15 04:28:58;;;;;;;2.78;2.05;;;9.60;99.90;;;;;;5051758;28;20029;-74
2021/05/15 04:31:24;;;;;;;1.95;1.55;;;9.70;99.90;;;;;;5051730;28;20032;-74
2021/05/15 04:33:49;;;;;;;2.55;1.90;;;9.80;99.90;;;;;;5034054;28;20021;-74
2021/05/15 04:36:15;;;;;;;3.20;1.85;;;9.80;99.90;;;;;;5051779;28;20542;-73
2021/05/15 04:38:40;;;;;;;2.42;1.65;;;9.70;99.90;;;;;;5033878;28;20121;-75
2021/05/15 04:41:06;;;;;;;2.90;2.05;;;9.60;99.90;;;;;;5033495;28;20029;-73
2021/05/15 04:43:31;;;;;;;2.78;1.65;;;9.60;99.90;;;;;;5033899;28;20029;-75
2021/05/15 04:45:57;;;;;;;1.95;1.70;;;9.70;99.90;;;;;;5051628;28;20032;-76
2021/05/15 04:48:23;;;;;;;2.70;1.77;;;9.60;99.90;;;;;;5051718;28;20021;-73
2021/05/15 04:50:49;;;;;;;1.73;1.63;;;9.50;99.90;;;;;;5051233;28;20082;-73
2021/05/15 04:53:14;;;;;;;2.03;1.83;;;9.50;99.90;;;;;;5051287;28;20032;-73
2021/05/15 04:55:40;;;;;;;2.35;2.10;;;9.50;99.90;;;;;;5051495;28;20079;-75
2021/05/15 04:58:05;;;;;;;2.28;1.70;;;9.50;99.90;;;;;;5051517;28;20036;-73
2021/05/15 05:00:31;;;;;;;1.95;1.70;;;9.50;99.90;;;;;;5033459;28;20025;-74
2021/05/15 05:02:56;;;;;;;3.17;2.00;;;9.60;99.90;;;;;;5051477;28;20670;-72
2021/05/15 05:05:22;;;;;;;2.13;1.70;;;9.60;99.90;;;;;;5033544;28;20021;-73
2021/05/15 05:07:48;;;;;;;4.95;2.10;;;9.60;99.90;;;;;;5051431;28;20075;-73
2021/05/15 05:10:13;;;;;;;2.38;1.70;;;9.60;99.90;;;;;;5051143;28;20025;-72
2021/05/15 05:12:39;;;;;;;1.70;1.60;;;9.50;99.90;;;;;;5051437;28;20031;-73
2021/05/15 05:15:06;;;;;;;1.67;1.58;;;9.60;99.90;;;;;;5051432;28;20625;-72
2021/05/15 05:17:31;;;;;;;2.90;1.65;;;9.50;99.90;;;;;;5051353;28;20028;-72
2021/05/15 05:19:57;;;;;;;3.45;2.10;;;9.50;99.90;;;;;;5051057;28;20104;-74
2021/05/15 05:22:22;;;;;;;2.80;1.73;;;9.60;99.90;;;;;;5051626;28;20448;-75
2021/05/15 05:24:48;;;;;;;2.47;1.83;;;9.60;99.90;;;;;;5051182;28;20021;-75
2021/05/15 05:27:14;;;;;;;3.05;2.20;;;9.70;99.90;;;;;;5051261;28;20071;-74
2021/05/15 05:29:40;;;;;;;4.03;2.03;;;9.70;99.90;;;;;;5051029;28;20377;-74
2021/05/15 05:32:10;;;;;;;2.13;1.92;;;9.80;99.90;;;;;;5033322;28;20057;-74
2021/05/15 05:34:37;;;;;;;3.67;2.22;;;10.00;99.90;;;;;;5051485;28;20041;-74
2021/05/15 05:37:03;;;;;;;2.05;1.85;;;10.00;99.90;;;;;;5051007;28;20025;-73
2021/05/15 05:39:29;;;;;;;2.80;1.90;;;10.10;99.90;;;;;;5050706;28;20076;-73
2021/05/15 05:41:54;;;;;;;6.07;5.40;;;10.00;99.90;;;;;;5051135;28;20033;-73
2021/05/15 05:44:20;;;;;;;5.00;2.30;;;10.20;99.90;;;;;;5050986;28;20025;-73
2021/05/15 05:46:45;;;;;;;2.45;1.90;;;10.40;99.90;;;;;;5051138;28;20079;-73
2021/05/15 05:49:11;;;;;;;1.95;1.70;;;10.60;99.90;;;;;;5050743;28;20025;-73
2021/05/15 05:51:37;;;;;;;2.60;2.20;;;10.70;99.90;;;;;;5050982;28;20041;-73
2021/05/15 05:54:02;;;;;;;2.63;2.03;;;10.80;99.90;;;;;;5033166;28;20029;-72
2021/05/15 05:56:28;;;;;;;2.78;1.83;;;10.90;99.90;;;;;;5050934;28;20021;-73
2021/05/15 05:58:55;;;;;;;2.08;1.70;;;10.70;99.90;;;;;;5033060;28;20029;-74
2021/05/15 06:01:21;;;;;;;3.10;1.95;;;10.70;99.90;;;;;;5032890;28;20025;-73
2021/05/15 06:03:46;;;;;;;2.33;1.90;;;10.70;99.90;;;;;;5050886;28;20044;-73
2021/05/15 06:06:12;;;;;;;2.72;2.00;;;10.90;99.90;;;;;;5036612;28;20025;-73
2021/05/15 06:08:38;;;;;;;2.72;1.80;;;11.00;99.90;;;;;;5054239;28;20027;-73
2021/05/15 06:11:04;;;;;;;2.92;1.85;;;11.20;99.90;;;;;;5054367;28;20029;-73
2021/05/15 06:13:30;;;;;;;2.30;1.92;;;11.30;99.90;;;;;;5036490;28;20055;-73
2021/05/15 06:15:56;;;;;;;5.97;2.00;;;11.40;99.90;;;;;;5054362;28;20053;-73
2021/05/15 06:18:21;;;;;;;2.00;1.80;;;11.40;99.90;;;;;;5054189;28;20484;-73
2021/05/15 06:20:47;;;;;;;1.77;1.50;;;11.80;99.90;;;;;;5036243;28;20028;-73
2021/05/15 06:23:14;;;;;;;3.80;2.05;;;12.00;99.90;;;;;;5054507;28;20025;-73
2021/05/15 06:25:40;;;;;;;3.10;1.90;;;12.00;99.90;;;;;;5036089;28;20109;-74
2021/05/15 06:28:05;;;;;;;1.50;1.40;;;11.90;99.90;;;;;;5053733;28;20450;-74
2021/05/15 06:30:31;;;;;;;2.78;1.70;;;11.80;99.90;;;;;;5035502;28;20017;-73
2021/05/15 06:32:57;;;;;;;1.60;1.50;;;12.10;99.90;;;;;;5053979;28;20052;-73
2021/05/15 06:35:22;;;;;;;2.03;1.83;;;12.20;99.90;;;;;;5053917;28;20028;-73
2021/05/15 06:37:48;;;;;;;2.28;1.70;;;12.30;99.90;;;;;;5053764;28;20044;-73
2021/05/15 06:40:13;;;;;;;3.50;1.65;;;12.30;99.90;;;;;;5053866;28;20033;-73
2021/05/15 06:42:39;;;;;;;1.83;1.45;;;12.10;99.90;;;;;;5053850;28;20592;-73
2021/05/15 06:45:07;;;;;;;1.60;1.45;;;11.70;99.90;;;;;;5053827;28;20032;-74
2021/05/15 06:47:32;;;;;;;3.00;2.25;;;11.40;99.90;;;;;;5053678;28;20089;-74
2021/05/15 06:49:58;;;;;;;4.03;1.85;;;11.30;99.90;;;;;;5053616;28;20550;-73
2021/05/15 06:52:24;;;;;;;4.25;3.47;;;11.20;99.90;;;;;;5053543;28;20122;-72
2021/05/15 06:54:49;;;;;;;2.90;2.20;;;11.20;99.90;;;;;;5053656;28;20020;-72
2021/05/15 06:57:15;;;;;;;3.05;1.70;;;11.40;99.90;;;;;;5053575;28;20107;-72
2021/05/15 06:59:40;;;;;;;3.70;1.58;;;11.50;99.90;;;;;;5053297;28;20385;-73
2021/05/15 07:02:06;;;;;;;4.28;2.55;;;11.50;99.90;;;;;;5053571;28;20086;-74
2021/05/15 07:04:31;;;;;;;2.63;2.08;;;11.70;99.90;;;;;;5053436;28;20033;-74
2021/05/15 07:06:57;;;;;;;1.80;1.70;;;11.90;99.90;;;;;;5053639;28;20455;-73
2021/05/15 07:09:23;;;;;;;5.43;1.70;;;12.10;99.90;;;;;;5053223;28;20017;-73
2021/05/15 07:11:49;;;;;;;1.60;1.48;;;12.10;99.90;;;;;;5053255;28;20032;-74
2021/05/15 07:14:15;;;;;;;3.10;1.55;;;12.30;99.90;;;;;;5035533;28;20067;-73
2021/05/15 07:16:41;;;;;;;1.98;1.33;;;12.70;99.90;;;;;;5053012;28;20060;-73
2021/05/15 07:19:07;;;;;;;2.53;1.60;;;13.10;99.90;;;;;;5052985;28;20054;-73
2021/05/15 07:21:32;;;;;;;1.30;1.20;;;13.40;99.90;;;;;;5035144;28;20431;-73
2021/05/15 07:23:58;;;;;;;4.15;1.42;;;13.60;99.90;;;;;;5053155;28;20029;-73
2021/05/15 07:26:23;;;;;;;7.75;1.50;;;13.40;99.90;;;;;;5052978;28;20429;-73
2021/05/15 07:28:49;;;;;;;3.10;1.50;;;13.10;99.90;;;;;;5052915;28;20025;-74
2021/05/15 07:31:14;;;;;;;2.60;1.20;;;12.90;99.90;;;;;;5034977;28;20392;-73
2021/05/15 07:33:40;;;;;;;2.00;1.65;;;12.40;99.90;;;;;;5052990;28;20020;-75
2021/05/15 07:36:05;;;;;;;2.03;1.48;;;12.40;99.90;;;;;;5052704;28;20086;-75
2021/05/15 07:38:31;;;;;;;2.15;1.52;;;12.40;99.90;;;;;;5035076;28;20028;-77
2021/05/15 07:40:57;;;;;;;1.50;1.20;;;12.60;99.90;;;;;;5034907;28;20043;-73
2021/05/15 07:43:25;;;;;;;1.42;1.33;;;12.70;99.90;;;;;;5052723;28;20061;-73
2021/05/15 07:45:51;;;;;;;2.22;1.50;;;12.70;99.90;;;;;;5034781;28;20029;-73
2021/05/15 07:48:17;;;;;;;2.17;1.20;;;13.00;99.90;;;;;;5052654;28;20025;-75
2021/05/15 07:50:42;;;;;;;2.75;1.50;;;13.00;99.90;;;;;;5051942;28;20029;-75
2021/05/15 07:53:08;;;;;;;4.13;1.30;;;12.80;99.90;;;;;;5052548;28;20441;-75
2021/05/15 07:55:33;;;;;;;1.92;1.58;;;13.20;99.90;;;;;;5034786;28;20025;-73
2021/05/15 07:57:59;;;;;;;2.22;1.88;;;13.40;99.90;;;;;;5052383;28;20059;-74
2021/05/15 08:00:25;;;;;;;4.35;3.45;;;13.40;99.90;;;;;;5052307;28;20039;-74
2021/05/15 08:02:50;;;;;;;4.97;2.22;;;13.10;99.90;;;;;;5052341;28;20037;-74
2021/05/15 08:05:16;;;;;;;3.42;2.55;;;13.00;99.90;;;;;;5052099;28;20050;-74
2021/05/15 08:07:41;;;;;;;1.50;1.40;;;13.30;99.90;;;;;;5052145;28;20028;-74
2021/05/15 08:10:08;;;;;;;2.20;1.58;;;13.60;99.90;;;;;;5051974;28;20025;-74
2021/05/15 08:12:35;;;;;;;1.40;1.30;;;14.20;99.90;;;;;;5052240;28;20531;-73
2021/05/15 08:15:01;;;;;;;1.98;1.60;;;14.30;99.90;;;;;;5052152;28;20025;-73
2021/05/15 08:17:27;;;;;;;1.88;1.60;;;14.00;99.90;;;;;;5052265;28;20028;-79
2021/05/15 08:19:53;;;;;;;1.58;1.48;;;14.50;99.90;;;;;;5051979;28;20554;-76
2021/05/15 08:22:18;;;;;;;3.28;1.70;;;14.60;99.90;;;;;;5051984;28;20112;-75
2021/05/15 08:24:44;;;;;;;1.50;1.40;;;13.70;99.90;;;;;;5050429;28;20043;-75
2021/05/15 08:27:09;;;;;;;1.92;1.30;;;13.10;99.90;;;;;;5049293;28;20025;-75
2021/05/15 08:29:35;;;;;;;2.22;1.70;;;13.10;99.90;;;;;;5049842;28;20021;-73
2021/05/15 08:32:01;;;;;;;1.95;1.33;;;12.80;99.90;;;;;;5049812;28;20527;-77
2021/05/15 08:34:27;;;;;;;2.15;1.45;;;12.60;99.90;;;;;;5049598;28;20068;-76
2021/05/15 08:36:53;;;;;;;1.70;1.48;;;12.60;99.90;;;;;;5049693;28;20431;-74
2021/05/15 08:39:19;;;;;;;1.60;1.50;;;12.90;99.90;;;;;;5032094;28;20021;-74
2021/05/15 08:41:45;;;;;;;3.28;1.40;;;13.00;99.90;;;;;;5033837;28;20051;-74
2021/05/15 08:44:12;;;;;;;1.77;1.60;;;12.70;99.90;;;;;;5033762;28;20052;-76
2021/05/15 08:46:41;;;;;;;1.85;1.75;;;13.00;99.90;;;;;;5033689;28;20021;-73
2021/05/15 08:49:08;;;;;;;3.38;2.08;;;13.50;99.90;;;;;;5051359;28;20430;-73
2021/05/15 08:51:34;;;;;;;2.55;1.55;;;13.50;99.90;;;;;;5051620;28;20051;-73
2021/05/15 08:54:00;;;;;;;2.25;1.67;;;13.60;99.90;;;;;;5051540;28;20049;-75
2021/05/15 08:56:27;;;;;;;1.45;1.35;;;13.60;99.90;;;;;;5051716;28;20067;-75
2021/05/15 08:58:54;;;;;;;1.40;1.30;;;13.20;99.90;;;;;;5033560;28;20024;-74
2021/05/15 09:01:20;;;;;;;2.13;1.50;;;13.00;99.90;;;;;;5033496;28;20484;-74
2021/05/15 09:03:46;;;;;;;1.80;1.50;;;13.20;99.90;;;;;;5051403;28;20043;-73
2021/05/15 09:06:12;;;;;;;4.00;1.50;;;13.30;99.90;;;;;;5033460;28;20427;-73
2021/05/15 09:08:38;;;;;;;1.55;1.45;;;13.70;99.90;;;;;;5051377;28;20029;-73
2021/05/15 09:11:04;;;;;;;2.85;1.40;;;13.90;99.90;;;;;;5033500;28;20021;-74
2021/05/15 09:13:30;;;;;;;2.08;1.60;;;13.90;99.90;;;;;;5051349;28;20509;-74
2021/05/15 09:16:02;;;;;;;1.60;1.30;;;13.80;99.90;;;;;;5051300;28;20029;-74
2021/05/15 09:18:37;;;;;;;3.15;1.50;;;13.50;99.90;;;;;;5051252;28;20509;-74
2021/05/15 09:21:06;;;;;;;1.63;1.50;;;13.30;99.90;;;;;;5033317;28;20116;-74
2021/05/15 09:23:34;;;;;;;2.03;1.60;;;13.60;99.90;;;;;;5051366;28;20037;-73
2021/05/15 09:26:06;;;;;;;1.95;1.70;;;14.00;99.90;;;;;;5033336;28;20116;-72
2021/05/15 09:28:46;;;;;;;3.92;1.70;;;14.40;99.90;;;;;;5051203;28;20028;-73
2021/05/15 09:31:17;;;;;;;3.53;1.80;;;14.60;99.90;;;;;;5051141;28;20025;-73
2021/05/15 09:33:48;;;;;;;1.48;1.38;;;14.20;99.90;;;;;;5051258;28;20025;-73
2021/05/15 09:36:21;;;;;;;1.40;1.30;;;13.70;99.90;;;;;;5033305;28;20128;-73
2021/05/15 09:39:04;;;;;;;1.15;0.98;;;13.30;99.90;;;;;;5051048;28;20044;-72
2021/05/15 09:41:40;;;;;;;1.50;1.40;;;13.20;99.90;;;;;;5055005;28;20075;-72
2021/05/15 09:44:08;;;;;;;2.90;1.70;;;13.10;99.90;;;;;;5055096;28;20055;-73
2021/05/15 09:46:35;;;;;;;1.40;1.30;;;13.40;99.90;;;;;;5054928;28;20032;-73
2021/05/15 09:49:01;;;;;;;1.60;1.50;;;13.00;99.90;;;;;;5054634;28;20476;-73
2021/05/15 09:51:28;;;;;;;3.42;1.70;;;12.80;99.90;;;;;;5054690;28;20060;-73
2021/05/15 09:53:53;;;;;;;1.65;1.50;;;12.30;99.90;;;;;;5054667;28;20025;-73
2021/05/15 09:56:30;;;;;;;3.92;1.65;;;11.70;99.90;;;;;;5054818;28;20032;-73
2021/05/15 09:58:56;;;;;;;1.80;1.35;;;11.20;99.90;;;;;;5054536;28;20106;-73
2021/05/15 10:01:23;;;;;;;1.30;1.20;;;11.00;99.90;;;;;;5054503;28;20021;-73
2021/05/15 10:03:58;;;;;;;2.05;1.50;;;10.90;99.90;;;;;;5036513;28;20504;-73
2021/05/15 10:06:23;;;;;;;2.05;1.80;;;11.10;99.90;;;;;;5054475;28;20032;-74
2021/05/15 10:08:49;;;;;;;5.15;1.90;;;11.60;99.90;;;;;;5054318;28;20032;-75
2021/05/15 10:11:15;;;;;;;2.67;2.10;;;12.10;99.90;;;;;;5054272;28;20061;-75
2021/05/15 10:13:42;;;;;;;3.20;2.22;;;12.40;99.90;;;;;;5054457;28;20028;-72
2021/05/15 10:16:08;;;;;;;14.32;9.43;;;13.30;99.90;;;;;;5054452;28;20021;-71
2021/05/15 10:18:34;;;;;;;4.93;4.00;;;13.80;99.90;;;;;;5054064;28;20068;-72
2021/05/15 10:21:01;;;;;;;2.50;2.30;;;14.10;99.90;;;;;;5054172;28;20495;-72
2021/05/15 10:23:36;;;;;;;2.83;2.50;;;14.10;99.90;;;;;;5036275;28;20033;-72
2021/05/15 10:26:05;;;;;;;3.40;1.95;;;14.50;99.90;;;;;;5054163;28;20029;-72
2021/05/15 10:28:34;;;;;;;1.95;1.75;;;15.00;99.90;;;;;;5054021;28;20066;-72
2021/05/15 10:31:04;;;;;;;3.95;2.42;;;15.30;99.90;;;;;;5053808;28;20017;-72
2021/05/15 10:33:31;;;;;;;1.70;1.60;;;15.10;99.90;;;;;;5053955;28;20021;-72
2021/05/15 10:35:57;;;;;;;2.22;1.73;;;14.50;99.90;;;;;;5054111;28;20028;-72
2021/05/15 10:38:33;;;;;;;2.35;2.17;;;14.50;99.90;;;;;;5053897;28;20025;-72
2021/05/15 10:41:17;;;;;;;4.18;2.75;;;14.40;99.90;;;;;;5053906;28;20476;-72
2021/05/15 10:43:44;;;;;;;1.50;1.40;;;14.20;99.90;;;;;;5036628;28;20058;-72
2021/05/15 10:46:24;;;;;;;3.00;1.42;;;14.10;99.90;;;;;;5035955;28;20036;-71
2021/05/15 10:48:57;;;;;;;1.98;1.77;;;13.90;99.90;;;;;;5036015;28;20017;-72
2021/05/15 10:51:42;;;;;;;2.53;1.98;;;14.00;99.90;;;;;;5052972;28;20033;-72
2021/05/15 10:54:10;;;;;;;2.05;1.85;;;14.20;99.90;;;;;;5053713;28;20092;-72
2021/05/15 10:56:35;;;;;;;1.60;1.50;;;15.10;99.90;;;;;;5054537;28;20590;-71
2021/05/15 10:59:11;;;;;;;3.30;2.00;;;15.60;99.90;;;;;;5054075;28;20130;-72
2021/05/15 11:01:47;;;;;;;2.20;1.88;;;15.80;99.90;;;;;;5053688;28;20519;-72
2021/05/15 11:04:19;;;;;;;2.60;1.70;;;15.90;99.90;;;;;;5053549;28;20032;-72
2021/05/15 11:07:04;;;;;;;2.00;1.40;;;15.60;99.90;;;;;;5053574;28;20032;-74
2021/05/15 11:09:30;;;;;;;1.50;1.40;;;15.60;99.90;;;;;;5035529;28;20138;-73
2021/05/15 11:12:13;;;;;;;1.92;1.40;;;16.00;99.90;;;;;;5035446;28;20670;-73
2021/05/15 11:14:40;;;;;;;2.15;1.88;;;16.10;99.90;;;;;;5035477;28;20025;-73
2021/05/15 11:17:19;;;;;;;1.75;1.50;;;16.20;99.90;;;;;;5053086;28;20032;-74
2021/05/15 11:19:59;;;;;;;1.48;1.38;;;16.30;99.90;;;;;;5053059;28;20017;-73
2021/05/15 11:22:47;;;;;;;2.35;1.77;;;15.50;99.90;;;;;;5035244;28;20021;-73
2021/05/15 11:25:12;;;;;;;1.83;1.40;;;16.10;99.90;;;;;;5052976;28;20021;-73
2021/05/15 11:27:51;;;;;;;1.98;1.40;;;16.30;99.90;;;;;;5035009;28;20075;-73
2021/05/15 11:30:18;;;;;;;1.20;1.10;;;15.70;99.90;;;;;;5052796;28;20017;-73
2021/05/15 11:33:02;;;;;;;2.33;1.27;;;15.70;99.90;;;;;;5052873;28;20044;-73
2021/05/15 11:35:30;;;;;;;1.20;1.10;;;15.40;99.90;;;;;;5041505;28;20025;-73
2021/05/15 11:38:04;;;;;;;1.50;1.20;;;15.20;99.90;;;;;;5052634;28;20056;-73
2021/05/15 11:40:30;;;;;;;2.10;1.35;;;15.20;99.90;;;;;;5052529;28;20392;-74
2021/05/15 11:42:56;;;;;;;3.40;1.02;;;15.00;99.90;;;;;;5064617;28;20033;-72
2021/05/15 11:45:32;;;;;;;1.63;1.27;;;14.90;99.90;;;;;;5052548;28;20021;-71
2021/05/15 11:48:25;;;;;;;1.13;1.00;;;14.50;99.90;;;;;;5052488;28;20472;-71
2021/05/15 11:51:00;;;;;;;0.98;0.82;;;13.60;99.90;;;;;;5049913;28;20129;-71
2021/05/15 11:53:27;;;;;;;0.98;0.80;;;12.10;99.90;;;;;;5052482;28;20168;-70
2021/05/15 11:55:53;;;;;;;1.02;0.90;;;11.40;99.90;;;;;;5052383;28;20021;-70
2021/05/15 11:58:19;;;;;;;2.53;1.00;;;11.30;99.90;;;;;;5052310;28;20055;-71
2021/05/15 12:00:45;;;;;;;1.00;0.90;;;12.20;99.90;;;;;;5034060;28;20033;-72
2021/05/15 12:03:11;;;;;;;0.88;0.70;;;13.70;99.90;;;;;;5051485;28;20021;-71
2021/05/15 12:05:37;;;;;;;1.05;0.88;;;14.10;99.90;;;;;;5051028;28;20095;-71
2021/05/15 12:08:12;;;;;;;0.80;0.80;;;14.00;99.90;;;;;;5052194;28;20470;-71
2021/05/15 12:10:39;;;;;;;0.82;0.73;;;14.30;99.90;;;;;;5051958;28;20499;-72
2021/05/15 12:13:05;;;;;;;1.10;1.00;;;14.40;99.90;;;;;;5052061;28;20032;-71
2021/05/15 12:15:32;;;;;;;0.70;0.70;;;14.90;99.90;;;;;;5052026;28;20108;-71
2021/05/15 12:18:00;;;;;;;1.17;0.80;;;15.10;99.90;;;;;;5051980;28;20074;-71
2021/05/15 12:20:49;;;;;;;3.55;1.20;;;15.30;99.90;;;;;;5051705;28;20451;-71
2021/05/15 12:23:20;;;;;;;1.23;1.13;;;15.30;99.90;;;;;;5052187;28;20024;-71
2021/05/15 12:26:09;;;;;;;1.33;0.90;;;15.30;99.90;;;;;;5051688;28;20120;-72
2021/05/15 12:28:45;;;;;;;0.90;0.90;;;16.00;99.90;;;;;;5051733;28;20013;-71
2021/05/15 12:31:26;;;;;;;1.08;0.98;;;16.40;99.90;;;;;;5051667;28;20103;-71
2021/05/15 12:33:53;;;;;;;1.05;0.80;;;16.80;99.90;;;;;;5047830;28;20025;-72
2021/05/15 12:36:19;;;;;;;1.10;1.00;;;16.80;99.90;;;;;;5051540;28;20067;-72
2021/05/15 12:38:46;;;;;;;0.80;0.80;;;17.10;99.90;;;;;;5051564;28;20068;-73
2021/05/15 12:41:15;;;;;;;0.80;0.80;;;17.70;99.90;;;;;;5053439;28;20028;-72
2021/05/15 12:43:43;;;;;;;0.98;0.90;;;18.40;99.90;;;;;;5051759;28;20419;-71
2021/05/15 12:46:10;;;;;;;0.90;0.90;;;17.20;99.90;;;;;;5054000;28;20532;-73
2021/05/15 12:48:39;;;;;;;1.38;1.27;;;17.30;99.90;;;;;;5053995;28;20431;-72
2021/05/15 12:51:15;;;;;;;0.95;0.95;;;18.40;99.90;;;;;;5054904;28;20046;-72
2021/05/15 12:53:41;;;;;;;1.80;0.73;;;19.20;99.90;;;;;;5051398;28;20017;-72
2021/05/15 12:56:14;;;;;;;2.03;0.85;;;19.50;99.90;;;;;;5055447;28;20393;-72